Time;durP1;ratioP1;P1;durP2;ratioP2;P2;SDS_P1;SDS_P2;PMS_P1;PMS_P2;Temp;Humidity;BMP_temperature;BMP_pressure;BME280_temperature;BME280_humidity;BME280_pressure;Samples;Min_cycle;Max_cycle;Signal;HPM_P1;HPM_P2
2023/01/25 00:00:40;;;;;;;44.27;27.67;;;1.90;73.80;;;;;;5073982;28;20161;-68
2023/01/25 00:03:05;;;;;;;41.63;27.90;;;1.80;72.20;;;;;;5073756;28;20203;-68
2023/01/25 00:05:31;;;;;;;45.57;28.50;;;1.70;74.90;;;;;;5073655;28;20173;-67
2023/01/25 00:07:56;;;;;;;48.73;29.53;;;1.80;77.10;;;;;;5073852;28;20196;-69
2023/01/25 00:10:22;;;;;;;45.97;28.73;;;1.80;77.50;;;;;;5073928;28;20526;-69
2023/01/25 00:12:48;;;;;;;40.57;24.50;;;1.80;74.50;;;;;;5073710;28;20206;-69
2023/01/25 00:15:13;;;;;;;46.27;29.33;;;1.80;74.10;;;;;;5073669;28;20168;-68
2023/01/25 00:17:39;;;;;;;47.67;29.13;;;1.80;78.80;;;;;;5073596;28;20655;-68
2023/01/25 00:20:06;;;;;;;48.57;29.70;;;1.90;80.40;;;;;;5073296;28;20169;-69
2023/01/25 00:22:31;;;;;;;59.00;33.37;;;2.00;78.20;;;;;;5074208;28;20179;-67
2023/01/25 00:24:57;;;;;;;50.00;30.70;;;2.00;69.50;;;;;;5073792;28;20562;-68
2023/01/25 00:27:22;;;;;;;45.53;28.20;;;2.10;70.20;;;;;;5073762;28;20165;-69
2023/01/25 00:29:48;;;;;;;43.20;28.60;;;2.10;65.10;;;;;;5073567;28;20176;-69
2023/01/25 00:32:14;;;;;;;48.27;29.10;;;2.10;59.00;;;;;;5073689;28;20171;-69
2023/01/25 00:34:49;;;;;;;41.90;26.80;;;2.00;59.20;;;;;;5073242;28;20175;-70
2023/01/25 00:37:29;;;;;;;46.90;27.30;;;2.00;60.50;;;;;;5073605;28;20255;-70
2023/01/25 00:39:54;;;;;;;48.40;28.53;;;2.00;56.60;;;;;;5055754;28;20204;-69
2023/01/25 00:42:20;;;;;;;46.20;29.07;;;2.00;58.10;;;;;;5073712;28;20161;-69
2023/01/25 00:44:47;;;;;;;46.77;28.57;;;2.00;56.70;;;;;;5073567;28;20655;-69
2023/01/25 00:47:13;;;;;;;45.23;28.20;;;1.90;58.50;;;;;;5073047;28;20272;-69
2023/01/25 00:49:40;;;;;;;39.80;23.67;;;1.90;61.50;;;;;;5072963;28;20195;-70
2023/01/25 00:52:07;;;;;;;43.47;24.80;;;1.70;59.40;;;;;;5073138;28;20295;-69
2023/01/25 00:54:32;;;;;;;44.73;27.63;;;1.50;69.30;;;;;;5073234;28;20164;-69
2023/01/25 00:56:58;;;;;;;42.47;27.83;;;1.50;75.10;;;;;;5073115;28;20172;-69
2023/01/25 00:59:24;;;;;;;42.60;27.27;;;1.60;76.00;;;;;;5073154;28;20172;-69
2023/01/25 01:01:51;;;;;;;45.77;28.33;;;1.70;72.10;;;;;;5073256;28;20183;-69
2023/01/25 01:04:17;;;;;;;43.23;28.13;;;1.80;72.10;;;;;;5072689;28;20208;-69
2023/01/25 01:06:43;;;;;;;48.10;27.97;;;2.00;70.00;;;;;;5073358;28;20167;-69
2023/01/25 01:09:14;;;;;;;41.27;26.30;;;1.90;61.50;;;;;;5073143;28;20275;-69
2023/01/25 01:11:40;;;;;;;44.50;27.53;;;1.80;61.80;;;;;;5072981;28;20255;-69
2023/01/25 01:14:06;;;;;;;47.13;28.77;;;1.80;63.90;;;;;;5073261;28;20204;-69
2023/01/25 01:16:32;;;;;;;48.07;29.10;;;1.80;66.80;;;;;;5073127;28;20191;-69
2023/01/25 01:18:57;;;;;;;45.13;28.53;;;1.80;68.80;;;;;;5072909;28;20700;-69
2023/01/25 01:21:23;;;;;;;46.13;29.40;;;1.80;67.00;;;;;;5073240;28;20552;-69
2023/01/25 01:23:49;;;;;;;47.80;28.23;;;1.80;65.70;;;;;;5055172;28;20268;-69
2023/01/25 01:26:19;;;;;;;42.47;25.57;;;1.80;67.00;;;;;;5073259;28;20171;-69
2023/01/25 01:28:45;;;;;;;44.27;28.77;;;1.70;66.50;;;;;;5073114;28;20169;-70
2023/01/25 01:31:16;;;;;;;45.77;29.20;;;1.70;71.10;;;;;;5073107;28;20246;-68
2023/01/25 01:33:42;;;;;;;46.37;29.93;;;1.80;74.00;;;;;;5073074;28;20304;-68
2023/01/25 01:36:10;;;;;;;49.53;30.53;;;1.80;73.10;;;;;;5072944;28;20199;-68
2023/01/25 01:38:36;;;;;;;48.60;30.40;;;1.90;70.10;;;;;;5072703;28;20203;-69
2023/01/25 01:41:02;;;;;;;47.23;30.17;;;2.00;65.90;;;;;;5072824;28;20535;-69
2023/01/25 01:43:29;;;;;;;49.50;31.40;;;2.10;62.60;;;;;;5072670;28;20219;-68
2023/01/25 01:45:59;;;;;;;48.50;31.20;;;2.20;61.90;;;;;;5072870;28;20267;-69
2023/01/25 01:48:33;;;;;;;45.27;28.27;;;2.30;57.90;;;;;;5073122;28;20255;-68
2023/01/25 01:51:32;;;;;;;46.40;29.67;;;2.30;53.80;;;;;;5055065;28;20203;-68
2023/01/25 01:54:14;;;;;;;45.33;28.63;;;2.20;53.20;;;;;;5053023;28;20193;-69
2023/01/25 01:56:51;;;;;;;47.20;28.93;;;2.10;56.50;;;;;;5053528;28;20265;-69
2023/01/25 01:59:18;;;;;;;47.53;29.53;;;2.00;54.90;;;;;;5056596;28;20177;-68
2023/01/25 02:01:44;;;;;;;44.73;28.63;;;1.90;59.10;;;;;;5056103;28;20207;-69
2023/01/25 02:04:11;;;;;;;47.93;29.90;;;1.80;63.90;;;;;;5056146;28;20223;-69
2023/01/25 02:06:49;;;;;;;52.77;32.47;;;1.70;69.10;;;;;;5056200;28;20181;-68
2023/01/25 02:09:21;;;;;;;53.80;30.73;;;1.70;73.40;;;;;;5056206;28;20173;-68
2023/01/25 02:11:48;;;;;;;47.93;30.43;;;1.80;70.60;;;;;;5056327;28;20184;-67
2023/01/25 02:14:15;;;;;;;46.07;27.67;;;1.80;65.00;;;;;;5037950;28;20223;-69
2023/01/25 02:16:42;;;;;;;42.87;28.37;;;1.90;63.60;;;;;;5055892;28;20165;-69
2023/01/25 02:19:10;;;;;;;47.33;29.27;;;1.90;59.80;;;;;;5056187;28;20166;-67
2023/01/25 02:21:42;;;;;;;47.20;30.90;;;1.90;58.00;;;;;;5056092;28;20230;-68
2023/01/25 02:24:17;;;;;;;47.10;29.03;;;1.90;58.70;;;;;;5055972;28;20240;-67
2023/01/25 02:26:43;;;;;;;48.93;30.00;;;2.00;58.40;;;;;;5055851;28;20497;-67
2023/01/25 02:29:09;;;;;;;48.53;29.27;;;2.10;54.10;;;;;;5055941;28;20187;-67
2023/01/25 02:31:35;;;;;;;46.07;29.60;;;2.10;52.00;;;;;;5055467;28;20174;-69
2023/01/25 02:34:01;;;;;;;44.50;28.80;;;2.00;50.80;;;;;;5055898;28;20231;-68
2023/01/25 02:36:30;;;;;;;51.90;32.10;;;1.90;55.40;;;;;;5055799;28;20705;-67
2023/01/25 02:39:09;;;;;;;45.93;29.23;;;2.00;56.90;;;;;;5055627;28;20629;-68
2023/01/25 02:41:39;;;;;;;48.10;30.47;;;1.70;56.30;;;;;;5055784;28;20165;-68
2023/01/25 02:44:08;;;;;;;42.90;27.80;;;1.90;61.80;;;;;;5055248;28;20213;-69
2023/01/25 02:46:36;;;;;;;49.17;29.23;;;1.90;60.60;;;;;;5055500;28;20181;-67
2023/01/25 02:49:04;;;;;;;48.27;28.10;;;2.00;59.20;;;;;;5055541;28;20202;-68
2023/01/25 02:51:33;;;;;;;47.20;29.30;;;1.90;55.10;;;;;;5057364;28;20231;-69
2023/01/25 02:53:59;;;;;;;45.37;28.13;;;1.70;58.10;;;;;;5075541;28;20190;-69
2023/01/25 02:56:26;;;;;;;45.83;29.73;;;1.70;63.30;;;;;;5075447;28;20182;-69
2023/01/25 02:58:52;;;;;;;46.00;29.87;;;1.70;67.10;;;;;;5075171;28;20259;-68
2023/01/25 03:01:17;;;;;;;43.93;28.33;;;1.60;66.80;;;;;;5075375;28;20231;-68
2023/01/25 03:03:43;;;;;;;52.03;28.27;;;1.60;71.50;;;;;;5075273;28;20216;-69
2023/01/25 03:06:09;;;;;;;46.87;29.87;;;1.60;71.50;;;;;;5075051;28;20177;-68
2023/01/25 03:08:35;;;;;;;47.67;28.57;;;1.60;72.50;;;;;;5074546;28;20621;-69
2023/01/25 03:11:02;;;;;;;46.17;28.47;;;1.60;67.50;;;;;;5075505;28;20172;-68
2023/01/25 03:13:28;;;;;;;48.30;27.50;;;1.70;68.40;;;;;;5074691;28;20251;-69
2023/01/25 03:16:03;;;;;;;47.10;29.43;;;1.60;67.90;;;;;;5074920;28;20253;-69
2023/01/25 03:18:29;;;;;;;44.17;28.27;;;1.60;69.00;;;;;;5057025;28;20176;-68
2023/01/25 03:20:54;;;;;;;44.57;28.80;;;1.70;66.90;;;;;;5074971;28;20167;-70
2023/01/25 03:23:20;;;;;;;48.80;27.50;;;1.70;66.80;;;;;;5075190;28;20300;-68
2023/01/25 03:25:46;;;;;;;50.50;30.67;;;1.50;62.80;;;;;;5075095;28;20169;-69
2023/01/25 03:28:11;;;;;;;49.57;29.33;;;1.60;71.70;;;;;;5056753;28;20658;-69
2023/01/25 03:30:37;;;;;;;47.77;28.83;;;1.60;71.80;;;;;;5075023;28;20165;-69
2023/01/25 03:33:03;;;;;;;49.57;28.13;;;1.50;68.30;;;;;;5074896;28;20203;-69
2023/01/25 03:35:28;;;;;;;46.27;27.00;;;1.30;76.60;;;;;;5074596;28;20263;-70
2023/01/25 03:37:54;;;;;;;47.43;28.73;;;1.20;85.60;;;;;;5074791;28;20200;-69
2023/01/25 03:40:20;;;;;;;42.47;24.93;;;1.20;90.10;;;;;;5075135;28;20227;-68
2023/01/25 03:42:45;;;;;;;46.20;28.00;;;1.20;91.40;;;;;;5074368;28;20177;-69
2023/01/25 03:45:13;;;;;;;47.80;29.27;;;1.20;90.80;;;;;;5056475;28;20176;-68
2023/01/25 03:47:39;;;;;;;51.60;30.27;;;1.30;91.20;;;;;;5074220;28;20187;-69
2023/01/25 03:50:05;;;;;;;50.53;30.33;;;1.40;88.30;;;;;;5074062;28;20176;-68
2023/01/25 03:52:37;;;;;;;56.23;32.13;;;1.50;83.80;;;;;;5063632;28;20220;-70
2023/01/25 03:55:03;;;;;;;49.07;30.03;;;1.50;79.30;;;;;;5074463;28;20229;-68
2023/01/25 03:57:29;;;;;;;58.47;28.77;;;1.30;80.50;;;;;;5073770;28;20191;-69
2023/01/25 03:59:54;;;;;;;52.40;30.60;;;1.20;84.80;;;;;;5074142;28;20629;-69
2023/01/25 04:02:20;;;;;;;50.30;28.73;;;1.20;89.00;;;;;;5074062;28;20176;-69
2023/01/25 04:04:46;;;;;;;46.40;28.23;;;1.20;87.10;;;;;;5073826;28;20548;-69
2023/01/25 04:07:11;;;;;;;48.70;29.73;;;1.20;90.20;;;;;;5074085;28;20264;-68
2023/01/25 04:09:37;;;;;;;50.47;29.40;;;1.30;89.90;;;;;;5074085;28;20165;-69
2023/01/25 04:12:02;;;;;;;46.00;28.17;;;1.30;87.70;;;;;;5072401;28;20184;-68
2023/01/25 04:14:28;;;;;;;46.80;28.70;;;1.50;86.50;;;;;;5073800;28;20176;-69
2023/01/25 04:16:53;;;;;;;49.50;30.33;;;1.60;79.10;;;;;;5073598;28;20223;-67
2023/01/25 04:19:19;;;;;;;47.27;29.30;;;1.60;72.00;;;;;;5073729;28;20165;-69
2023/01/25 04:21:45;;;;;;;45.83;29.23;;;1.60;66.00;;;;;;5071603;28;20513;-69
2023/01/25 04:24:10;;;;;;;47.33;28.70;;;1.50;62.80;;;;;;5073485;28;20200;-69
2023/01/25 04:26:36;;;;;;;47.20;29.30;;;1.40;65.10;;;;;;5073383;28;20187;-69
2023/01/25 04:29:02;;;;;;;45.80;28.47;;;1.40;65.90;;;;;;5073600;28;20584;-68
2023/01/25 04:31:27;;;;;;;46.57;29.40;;;1.40;71.20;;;;;;5073637;28;20172;-69
2023/01/25 04:33:54;;;;;;;50.17;29.87;;;1.50;71.70;;;;;;5073208;28;20237;-68
2023/01/25 04:36:20;;;;;;;53.87;30.27;;;1.50;69.40;;;;;;5073413;28;20173;-68
2023/01/25 04:38:46;;;;;;;48.33;29.27;;;1.60;66.00;;;;;;5073586;28;20169;-68
2023/01/25 04:41:11;;;;;;;47.80;28.13;;;1.60;62.30;;;;;;5073243;28;20501;-68
2023/01/25 04:43:37;;;;;;;45.93;28.83;;;1.60;59.80;;;;;;5073432;28;20244;-69
2023/01/25 04:46:03;;;;;;;48.73;29.37;;;1.60;58.70;;;;;;5073381;28;20558;-69
2023/01/25 04:48:29;;;;;;;46.07;28.40;;;1.70;57.40;;;;;;5073465;28;20180;-69
2023/01/25 04:50:54;;;;;;;45.13;28.43;;;1.60;54.80;;;;;;5073300;28;20203;-69
2023/01/25 04:53:20;;;;;;;51.47;31.77;;;1.80;56.80;;;;;;5073194;28;20323;-68
2023/01/25 04:55:47;;;;;;;48.97;29.70;;;2.00;55.50;;;;;;5073045;28;20168;-67
2023/01/25 04:58:12;;;;;;;48.80;29.20;;;2.10;50.40;;;;;;5073348;28;20180;-68
2023/01/25 05:00:39;;;;;;;50.30;31.57;;;2.10;42.60;;;;;;5073420;28;20173;-68
2023/01/25 05:03:04;;;;;;;51.10;31.17;;;2.00;40.60;;;;;;5072901;28;20291;-68
2023/01/25 05:05:30;;;;;;;50.00;29.10;;;1.90;46.10;;;;;;5054972;28;20260;-68
2023/01/25 05:07:56;;;;;;;47.37;28.53;;;1.50;43.00;;;;;;5073018;28;20164;-68
2023/01/25 05:10:22;;;;;;;45.90;27.03;;;1.30;57.10;;;;;;5054853;28;20578;-68
2023/01/25 05:12:47;;;;;;;43.17;26.00;;;1.20;62.20;;;;;;5072836;28;20609;-68
2023/01/25 05:15:13;;;;;;;47.57;28.50;;;1.10;66.50;;;;;;5073045;28;20172;-68
2023/01/25 05:17:42;;;;;;;48.23;28.40;;;1.10;71.00;;;;;;5072963;28;20164;-69
2023/01/25 05:20:08;;;;;;;44.93;27.67;;;1.20;73.90;;;;;;5072942;28;20207;-67
2023/01/25 05:22:34;;;;;;;50.00;28.30;;;1.30;70.60;;;;;;5072860;28;20187;-69
2023/01/25 05:25:01;;;;;;;42.90;27.30;;;1.30;65.00;;;;;;5072463;28;20212;-68
2023/01/25 05:27:27;;;;;;;50.40;29.93;;;1.40;63.50;;;;;;5072963;28;20251;-68
2023/01/25 05:29:53;;;;;;;47.60;28.70;;;1.40;61.70;;;;;;5072802;28;20653;-69
2023/01/25 05:32:21;;;;;;;51.33;30.43;;;1.60;60.40;;;;;;5074721;28;20187;-68
2023/01/25 05:34:47;;;;;;;46.73;28.67;;;1.60;56.50;;;;;;5076823;28;20184;-68
2023/01/25 05:37:16;;;;;;;45.27;28.00;;;1.50;51.20;;;;;;5076763;28;20232;-68
2023/01/25 05:39:42;;;;;;;48.53;28.70;;;1.20;54.60;;;;;;5076236;28;20180;-67
2023/01/25 05:42:11;;;;;;;48.50;29.33;;;1.10;67.80;;;;;;5076521;28;20647;-69
2023/01/25 05:44:37;;;;;;;48.03;27.53;;;1.20;71.00;;;;;;5076355;28;20561;-68
2023/01/25 05:47:02;;;;;;;46.93;29.13;;;1.30;66.70;;;;;;5076477;28;20200;-69
2023/01/25 05:49:28;;;;;;;48.20;29.53;;;1.20;63.10;;;;;;5076522;28;20259;-69
2023/01/25 05:51:54;;;;;;;45.70;27.13;;;1.30;62.50;;;;;;5076395;28;20683;-69
2023/01/25 05:54:19;;;;;;;49.97;29.93;;;1.30;63.60;;;;;;5076394;28;20639;-68
2023/01/25 05:56:47;;;;;;;53.00;31.30;;;1.40;62.80;;;;;;5077544;28;20251;-69
2023/01/25 05:59:13;;;;;;;52.80;30.80;;;1.50;60.70;;;;;;5076384;28;20642;-68
2023/01/25 06:01:39;;;;;;;50.87;31.10;;;1.70;58.60;;;;;;5076514;28;20179;-71
2023/01/25 06:04:05;;;;;;;52.53;30.50;;;1.80;52.20;;;;;;5076443;28;20208;-69
2023/01/25 06:06:30;;;;;;;53.30;31.53;;;1.80;47.20;;;;;;5076069;28;20187;-69
2023/01/25 06:08:56;;;;;;;50.90;29.77;;;1.90;46.70;;;;;;5075742;28;20263;-68
2023/01/25 06:11:23;;;;;;;49.07;29.90;;;1.80;41.70;;;;;;5075988;28;20235;-68
2023/01/25 06:13:49;;;;;;;48.63;29.77;;;1.60;46.90;;;;;;5075959;28;20270;-68
2023/01/25 06:16:16;;;;;;;48.03;29.37;;;1.50;52.20;;;;;;5076019;28;20205;-68
2023/01/25 06:18:42;;;;;;;49.03;28.83;;;1.50;53.70;;;;;;5075919;28;20218;-69
2023/01/25 06:21:08;;;;;;;51.27;29.77;;;1.40;55.30;;;;;;5075215;28;20230;-69
2023/01/25 06:23:34;;;;;;;51.03;29.80;;;1.30;53.40;;;;;;5075140;28;20586;-69
2023/01/25 06:26:02;;;;;;;50.13;29.67;;;1.20;59.30;;;;;;5075416;28;20184;-69
2023/01/25 06:28:32;;;;;;;49.20;30.03;;;1.30;64.70;;;;;;5075560;28;20188;-69
2023/01/25 06:31:12;;;;;;;53.03;30.50;;;1.40;64.20;;;;;;5075564;28;20179;-69
2023/01/25 06:33:39;;;;;;;51.37;30.50;;;1.50;58.80;;;;;;5075265;28;20229;-68
2023/01/25 06:36:12;;;;;;;50.30;29.43;;;1.50;57.10;;;;;;5074899;28;20173;-67
2023/01/25 06:38:37;;;;;;;52.17;31.03;;;1.40;52.80;;;;;;5075468;28;20176;-69
2023/01/25 06:41:05;;;;;;;51.97;30.70;;;1.40;52.90;;;;;;5075371;28;20607;-69
2023/01/25 06:43:32;;;;;;;52.57;31.00;;;1.40;52.30;;;;;;5074003;28;20212;-68
2023/01/25 06:46:03;;;;;;;52.23;29.47;;;1.40;54.90;;;;;;5074960;28;20585;-69
2023/01/25 06:48:30;;;;;;;52.53;30.40;;;1.30;55.50;;;;;;5075253;28;20182;-69
2023/01/25 06:50:57;;;;;;;48.13;28.47;;;1.40;55.60;;;;;;5074913;28;20516;-69
2023/01/25 06:53:25;;;;;;;52.13;30.07;;;1.40;54.50;;;;;;5074708;28;20251;-69
2023/01/25 06:55:57;;;;;;;50.43;30.13;;;1.20;51.90;;;;;;5074640;28;20773;-69
2023/01/25 06:58:22;;;;;;;52.73;29.73;;;1.10;55.70;;;;;;5074798;28;20655;-69
2023/01/25 07:00:48;;;;;;;48.50;28.90;;;1.00;57.70;;;;;;5075309;28;20173;-69
2023/01/25 07:03:13;;;;;;;51.80;30.53;;;0.90;64.80;;;;;;5074968;28;20598;-68
2023/01/25 07:05:39;;;;;;;49.37;29.57;;;0.80;69.60;;;;;;5075125;28;20222;-69
2023/01/25 07:08:05;;;;;;;55.63;31.87;;;0.90;73.40;;;;;;5074691;28;20655;-69
2023/01/25 07:10:30;;;;;;;60.77;33.70;;;1.00;75.80;;;;;;5074967;28;20271;-69
2023/01/25 07:12:56;;;;;;;58.47;33.73;;;1.10;75.30;;;;;;5074181;28;20481;-69
2023/01/25 07:15:22;;;;;;;57.33;31.70;;;1.30;71.60;;;;;;5074524;28;20168;-69
2023/01/25 07:17:48;;;;;;;54.03;31.60;;;1.40;65.80;;;;;;5074254;28;20211;-68
2023/01/25 07:20:14;;;;;;;60.10;33.97;;;1.40;60.70;;;;;;5074446;28;20222;-69
2023/01/25 07:22:39;;;;;;;53.73;31.53;;;1.50;58.00;;;;;;5074367;28;20652;-69
2023/01/25 07:25:05;;;;;;;54.13;31.93;;;1.50;50.80;;;;;;5074373;28;20250;-69
2023/01/25 07:27:34;;;;;;;57.27;32.87;;;1.30;51.70;;;;;;5074565;28;20214;-69
2023/01/25 07:30:00;;;;;;;58.17;33.33;;;1.40;59.70;;;;;;5074443;28;20660;-69
2023/01/25 07:32:25;;;;;;;61.97;34.20;;;1.40;60.10;;;;;;5074396;28;20648;-69
2023/01/25 07:34:51;;;;;;;57.23;32.67;;;1.50;57.20;;;;;;5073470;28;20283;-69
2023/01/25 07:37:17;;;;;;;54.90;32.10;;;1.70;54.30;;;;;;5074366;28;20261;-69
2023/01/25 07:39:48;;;;;;;55.03;33.67;;;1.70;45.80;;;;;;5074305;28;20172;-69
2023/01/25 07:42:14;;;;;;;57.63;34.27;;;1.70;45.10;;;;;;5074362;28;20215;-69
2023/01/25 07:44:40;;;;;;;60.13;35.13;;;1.80;44.30;;;;;;5073963;28;20250;-70
2023/01/25 07:47:05;;;;;;;62.17;35.87;;;2.00;41.20;;;;;;5073863;28;20231;-68
2023/01/25 07:49:31;;;;;;;61.53;34.40;;;2.00;35.80;;;;;;5074091;28;20169;-68
2023/01/25 07:51:57;;;;;;;55.47;33.27;;;1.90;38.30;;;;;;5074205;28;20223;-68
2023/01/25 07:54:22;;;;;;;62.73;34.20;;;2.00;39.40;;;;;;5073810;28;20176;-69
2023/01/25 07:56:48;;;;;;;61.90;35.10;;;2.10;35.60;;;;;;5073170;28;20656;-68
2023/01/25 07:59:14;;;;;;;58.83;33.07;;;2.10;32.80;;;;;;5073731;28;20251;-68
2023/01/25 08:01:40;;;;;;;58.23;34.03;;;2.10;30.50;;;;;;5073597;28;20176;-69
2023/01/25 08:04:06;;;;;;;65.63;34.63;;;2.00;28.10;;;;;;5073425;28;20608;-69
2023/01/25 08:06:40;;;;;;;62.80;34.73;;;1.80;34.00;;;;;;5074025;28;20257;-69
2023/01/25 08:09:10;;;;;;;60.03;32.63;;;1.60;39.80;;;;;;5074067;28;20175;-68
2023/01/25 08:11:36;;;;;;;58.87;34.07;;;1.30;47.30;;;;;;5074513;28;20255;-68
2023/01/25 08:14:02;;;;;;;55.73;32.50;;;1.10;56.00;;;;;;5073921;28;20270;-69
2023/01/25 08:16:29;;;;;;;60.17;32.83;;;0.90;62.60;;;;;;5073852;28;20164;-69
2023/01/25 08:18:57;;;;;;;54.20;31.43;;;1.00;68.60;;;;;;5073058;28;20230;-69
2023/01/25 08:21:27;;;;;;;57.07;33.50;;;0.90;71.00;;;;;;5073527;28;20164;-69
2023/01/25 08:23:53;;;;;;;54.43;32.33;;;0.90;73.40;;;;;;5049594;28;20209;-69
2023/01/25 08:26:19;;;;;;;57.13;33.10;;;1.10;73.40;;;;;;5052179;28;20581;-69
2023/01/25 08:28:45;;;;;;;60.17;34.70;;;1.10;68.70;;;;;;5059482;28;20184;-69
2023/01/25 08:31:20;;;;;;;59.77;33.47;;;1.30;64.80;;;;;;5054616;28;20180;-68
2023/01/25 08:33:46;;;;;;;65.07;35.47;;;1.50;59.80;;;;;;5068832;28;20207;-69
2023/01/25 08:36:13;;;;;;;61.67;34.50;;;1.70;54.40;;;;;;5061003;28;20177;-70
2023/01/25 08:38:39;;;;;;;66.30;36.37;;;1.80;48.20;;;;;;5052409;28;20264;-71
2023/01/25 08:41:16;;;;;;;61.40;35.20;;;1.90;42.70;;;;;;5054678;28;20264;-69
2023/01/25 08:43:43;;;;;;;63.43;35.63;;;2.00;40.70;;;;;;5057953;28;20204;-69
2023/01/25 08:46:09;;;;;;;60.90;35.70;;;2.00;35.40;;;;;;5053716;28;20205;-69
2023/01/25 08:48:35;;;;;;;61.23;36.07;;;2.00;33.00;;;;;;5060803;28;20222;-69
2023/01/25 08:51:01;;;;;;;61.90;35.27;;;2.10;30.50;;;;;;5060042;28;20629;-70
2023/01/25 08:53:29;;;;;;;61.27;34.73;;;2.10;29.00;;;;;;5050672;28;20278;-70
2023/01/25 08:55:54;;;;;;;66.07;37.10;;;2.00;27.30;;;;;;5055426;28;20181;-69
2023/01/25 08:58:21;;;;;;;62.67;35.80;;;2.10;31.50;;;;;;5060086;28;20185;-70
2023/01/25 09:00:48;;;;;;;66.90;37.13;;;2.20;32.10;;;;;;5055442;28;20194;-70
2023/01/25 09:03:14;;;;;;;64.50;37.43;;;2.30;28.40;;;;;;5051102;28;20177;-69
2023/01/25 09:05:39;;;;;;;60.47;35.27;;;2.30;21.70;;;;;;5057183;28;20185;-66
2023/01/25 09:08:07;;;;;;;65.60;37.13;;;2.20;23.40;;;;;;5051713;28;20176;-68
2023/01/25 09:10:33;;;;;;;64.93;36.83;;;2.20;24.20;;;;;;5062092;28;20268;-71
2023/01/25 09:12:59;;;;;;;61.63;34.37;;;2.10;25.40;;;;;;5060662;28;20195;-69
2023/01/25 09:15:25;;;;;;;61.87;35.60;;;1.80;28.90;;;;;;5061238;28;20180;-68
2023/01/25 09:17:55;;;;;;;64.00;36.53;;;1.60;41.30;;;;;;5052081;28;20188;-66
2023/01/25 09:20:21;;;;;;;65.10;34.87;;;1.50;47.00;;;;;;5061596;28;20172;-69
2023/01/25 09:22:47;;;;;;;68.20;37.00;;;1.40;50.40;;;;;;5061747;28;20245;-68
2023/01/25 09:25:13;;;;;;;71.90;36.73;;;1.30;53.80;;;;;;5057130;28;20213;-69
2023/01/25 09:27:39;;;;;;;69.47;37.70;;;1.30;55.40;;;;;;5061618;28;20176;-69
2023/01/25 09:30:07;;;;;;;69.00;36.13;;;1.40;58.40;;;;;;5074938;28;20180;-67
2023/01/25 09:32:32;;;;;;;69.63;37.60;;;1.30;57.20;;;;;;5064884;28;20169;-67
2023/01/25 09:34:58;;;;;;;70.83;36.83;;;1.20;59.90;;;;;;5064491;28;20705;-68
2023/01/25 09:37:24;;;;;;;71.00;37.60;;;1.20;64.20;;;;;;5061791;28;20216;-67
2023/01/25 09:39:49;;;;;;;71.37;36.10;;;1.10;67.00;;;;;;5058815;28;20232;-68
2023/01/25 09:42:15;;;;;;;67.40;37.53;;;1.10;68.30;;;;;;5074172;28;20294;-68
2023/01/25 09:45:21;;;;;;;69.60;37.00;;;1.10;71.20;;;;;;5070954;28;20219;-69
2023/01/25 09:48:20;;;;;;;73.83;38.33;;;1.10;74.30;;;;;;5072617;28;20176;-70
2023/01/25 09:51:15;;;;;;;80.20;37.60;;;1.30;68.00;;;;;;5071964;28;20164;-68
2023/01/25 09:53:52;;;;;;;69.60;38.30;;;1.50;62.90;;;;;;5052083;28;20197;-68
2023/01/25 09:56:21;;;;;;;74.03;36.57;;;1.40;56.30;;;;;;5051478;28;20173;-69
2023/01/25 09:58:49;;;;;;;69.37;37.53;;;1.30;52.80;;;;;;5036692;28;20264;-69
2023/01/25 10:01:27;;;;;;;73.43;38.40;;;1.20;60.60;;;;;;5032344;28;20225;-69
2023/01/25 10:04:15;;;;;;;69.33;37.90;;;1.30;62.90;;;;;;5032449;28;20289;-68
2023/01/25 10:06:44;;;;;;;77.13;37.67;;;1.40;62.20;;;;;;5032420;28;20186;-69
2023/01/25 10:09:36;;;;;;;66.43;36.07;;;1.50;58.00;;;;;;5031340;28;20285;-70
2023/01/25 10:12:22;;;;;;;70.67;36.40;;;1.60;50.80;;;;;;5032044;28;20181;-69
2023/01/25 10:14:49;;;;;;;67.60;37.00;;;1.70;50.50;;;;;;5032428;28;20295;-70
2023/01/25 10:17:43;;;;;;;70.50;38.53;;;1.70;44.10;;;;;;5032464;28;20197;-70
2023/01/25 10:20:32;;;;;;;65.53;33.37;;;1.70;44.00;;;;;;5034553;28;20182;-69
2023/01/25 10:23:16;;;;;;;67.93;36.73;;;1.30;44.10;;;;;;5035923;28;20185;-70
2023/01/25 10:25:49;;;;;;;72.07;37.40;;;1.20;54.70;;;;;;5035853;28;20201;-70
2023/01/25 10:28:37;;;;;;;64.30;36.03;;;1.30;59.90;;;;;;5035663;28;20255;-69
2023/01/25 10:31:19;;;;;;;74.40;37.90;;;1.50;51.10;;;;;;5035876;28;20241;-70
2023/01/25 10:33:47;;;;;;;67.00;37.03;;;1.50;48.40;;;;;;5035994;28;20314;-69
2023/01/25 10:36:20;;;;;;;69.53;38.17;;;1.70;48.70;;;;;;5041668;28;20186;-69
2023/01/25 10:38:56;;;;;;;70.37;38.37;;;1.80;44.00;;;;;;5052297;28;20218;-70
2023/01/25 10:41:25;;;;;;;69.03;36.53;;;1.90;37.20;;;;;;5034029;28;20178;-70
2023/01/25 10:44:20;;;;;;;63.57;34.90;;;1.80;28.00;;;;;;5034991;28;20359;-69
2023/01/25 10:46:46;;;;;;;69.33;36.63;;;1.60;27.70;;;;;;5035227;28;20178;-70
2023/01/25 10:49:23;;;;;;;69.93;35.93;;;1.50;37.50;;;;;;5017843;28;20181;-70
2023/01/25 10:51:49;;;;;;;68.03;37.87;;;1.50;37.60;;;;;;5040083;28;20217;-70
2023/01/25 10:54:15;;;;;;;71.30;37.10;;;1.60;41.00;;;;;;5055654;28;20193;-68
2023/01/25 10:56:43;;;;;;;68.50;35.47;;;1.80;41.90;;;;;;5055095;28;20234;-70
2023/01/25 10:59:24;;;;;;;70.60;37.47;;;1.70;34.50;;;;;;5054557;28;20177;-70
2023/01/25 11:01:50;;;;;;;67.90;36.83;;;1.70;34.00;;;;;;5055108;28;20184;-69
2023/01/25 11:04:34;;;;;;;70.37;38.60;;;1.80;34.10;;;;;;5054910;28;20693;-68
2023/01/25 11:07:02;;;;;;;69.17;38.67;;;1.90;31.70;;;;;;5037246;28;20548;-69
2023/01/25 11:09:28;;;;;;;73.50;37.87;;;2.10;30.80;;;;;;5055003;28;20338;-69
2023/01/25 11:11:57;;;;;;;71.17;37.53;;;2.10;26.00;;;;;;5054357;28;20256;-70
2023/01/25 11:14:26;;;;;;;67.67;36.83;;;2.20;24.40;;;;;;5054912;28;20174;-70
2023/01/25 11:16:53;;;;;;;73.73;39.17;;;2.40;22.80;;;;;;5055033;28;20181;-69
2023/01/25 11:19:34;;;;;;;74.13;39.93;;;2.80;20.10;;;;;;5054739;28;20169;-69
2023/01/25 11:22:05;;;;;;;71.23;39.17;;;2.70;2.90;;;;;;5054714;28;20212;-69
2023/01/25 11:24:35;;;;;;;73.13;38.67;;;2.80;6.10;;;;;;5054694;28;20251;-69
2023/01/25 11:27:21;;;;;;;70.13;37.90;;;2.90;2.60;;;;;;5059695;28;20252;-70
2023/01/25 11:30:10;;;;;;;70.23;38.03;;;3.00;1.00;;;;;;5069518;28;20572;-70
2023/01/25 11:32:40;;;;;;;69.50;37.73;;;2.90;1.00;;;;;;5061901;28;20219;-69
2023/01/25 11:35:15;;;;;;;70.93;37.63;;;2.80;1.00;;;;;;5074480;28;20168;-69
2023/01/25 11:37:59;;;;;;;69.57;38.00;;;2.50;1.00;;;;;;5074093;28;20165;-69
2023/01/25 11:40:32;;;;;;;75.47;38.73;;;2.60;1.00;;;;;;5073902;28;20249;-69
2023/01/25 11:43:16;;;;;;;66.27;36.73;;;2.50;1.00;;;;;;5071934;28;20195;-69
2023/01/25 11:46:05;;;;;;;66.80;36.40;;;2.60;3.90;;;;;;5059310;28;20255;-69
2023/01/25 11:48:42;;;;;;;70.40;37.63;;;2.10;6.00;;;;;;5052689;28;20173;-69
2023/01/25 11:51:24;;;;;;;66.53;35.63;;;1.90;19.40;;;;;;5064333;28;20184;-69
2023/01/25 11:54:10;;;;;;;73.47;38.20;;;1.60;24.40;;;;;;5054167;28;20849;-69
2023/01/25 11:57:03;;;;;;;76.83;39.20;;;1.50;35.60;;;;;;5053742;28;20181;-69
2023/01/25 11:59:52;;;;;;;70.23;35.17;;;1.60;40.30;;;;;;5053564;28;20648;-69
2023/01/25 12:02:51;;;;;;;74.60;37.90;;;1.60;34.50;;;;;;5053975;28;20181;-68
2023/01/25 12:05:22;;;;;;;75.77;37.23;;;1.70;36.60;;;;;;5046346;28;20626;-69
2023/01/25 12:08:08;;;;;;;73.43;38.40;;;1.80;31.50;;;;;;5053682;28;20165;-69
2023/01/25 12:10:59;;;;;;;76.07;38.97;;;1.80;29.20;;;;;;5053272;28;20705;-70
2023/01/25 12:13:52;;;;;;;79.10;39.60;;;2.00;28.90;;;;;;5053450;28;20173;-69
2023/01/25 12:17:02;;;;;;;76.03;39.47;;;2.20;25.60;;;;;;5046946;28;20177;-68
2023/01/25 12:19:49;;;;;;;72.63;37.50;;;2.50;17.00;;;;;;4984485;28;20214;-67
2023/01/25 12:22:48;;;;;;;76.30;37.60;;;2.60;3.70;;;;;;4994856;28;20197;-67
2023/01/25 12:25:35;;;;;;;75.40;38.90;;;2.70;1.00;;;;;;4990168;28;20217;-67
2023/01/25 12:28:27;;;;;;;71.40;38.63;;;2.70;1.00;;;;;;4975115;28;20185;-67
2023/01/25 12:31:03;;;;;;;71.53;38.07;;;2.50;1.00;;;;;;4994133;28;20172;-66
2023/01/25 12:33:41;;;;;;;75.87;39.07;;;2.40;1.00;;;;;;4986356;28;20570;-67
2023/01/25 12:36:22;;;;;;;78.87;37.77;;;2.30;1.00;;;;;;4999879;28;20179;-67
2023/01/25 12:39:18;;;;;;;74.80;39.30;;;2.00;4.20;;;;;;4993495;28;20206;-67
2023/01/25 12:42:04;;;;;;;79.75;51.38;;;2.00;14.40;;;;;;4985928;28;20424;-68
2023/01/25 12:44:37;;;;;;;73.97;41.40;;;2.10;17.40;;;;;;4997278;28;20746;-67
2023/01/25 12:47:36;;;;;;;74.43;39.07;;;2.30;14.00;;;;;;4996793;28;20202;-69
2023/01/25 12:50:16;;;;;;;73.83;39.00;;;2.50;3.10;;;;;;4990944;28;20265;-69
2023/01/25 12:53:23;;;;;;;75.57;38.83;;;2.40;2.10;;;;;;5020635;28;20251;-68